sensor_id;sensor_type;location;lat;lon;timestamp;pressure;altitude;pressure_sealevel;temperature;humidity
75886;BME280;64561;44.018;10.144;2023-02-28T00:01:06;101608.16;;;7.86;72.04
75886;BME280;64561;44.018;10.144;2023-02-28T00:03:33;101618.19;;;7.83;72.27
75886;BME280;64561;44.018;10.144;2023-02-28T00:06:04;101614.69;;;7.81;72.57
75886;BME280;64561;44.018;10.144;2023-02-28T00:08:31;101608.50;;;7.75;73.04
75886;BME280;64561;44.018;10.144;2023-02-28T00:11:03;101622.34;;;7.81;73.01
75886;BME280;64561;44.018;10.144;2023-02-28T00:13:30;101624.50;;;7.73;72.36
75886;BME280;64561;44.018;10.144;2023-02-28T00:15:59;101625.53;;;7.59;72.23
75886;BME280;64561;44.018;10.144;2023-02-28T00:18:27;101631.03;;;7.50;72.67
75886;BME280;64561;44.018;10.144;2023-02-28T00:20:57;101627.91;;;7.55;73.42
75886;BME280;64561;44.018;10.144;2023-02-28T00:23:25;101625.66;;;7.62;74.47
75886;BME280;64561;44.018;10.144;2023-02-28T00:25:52;101626.75;;;7.67;73.15
75886;BME280;64561;44.018;10.144;2023-02-28T00:28:20;101619.34;;;7.71;72.17
75886;BME280;64561;44.018;10.144;2023-02-28T00:30:47;101618.81;;;7.61;69.80
75886;BME280;64561;44.018;10.144;2023-02-28T00:33:16;101613.13;;;7.48;69.45
75886;BME280;64561;44.018;10.144;2023-02-28T00:35:43;101611.94;;;7.42;69.69
75886;BME280;64561;44.018;10.144;2023-02-28T00:38:14;101607.97;;;7.47;69.89
75886;BME280;64561;44.018;10.144;2023-02-28T00:40:41;101616.59;;;7.32;70.95
75886;BME280;64561;44.018;10.144;2023-02-28T00:43:10;101615.47;;;7.27;71.55
75886;BME280;64561;44.018;10.144;2023-02-28T00:45:37;101617.81;;;7.23;71.63
75886;BME280;64561;44.018;10.144;2023-02-28T00:48:04;101627.19;;;7.24;70.96
75886;BME280;64561;44.018;10.144;2023-02-28T00:50:31;101615.88;;;7.19;71.56
75886;BME280;64561;44.018;10.144;2023-02-28T00:52:58;101619.91;;;7.14;70.72
75886;BME280;64561;44.018;10.144;2023-02-28T00:55:25;101618.28;;;7.16;71.39
75886;BME280;64561;44.018;10.144;2023-02-28T00:57:52;101605.34;;;7.11;70.96
75886;BME280;64561;44.018;10.144;2023-02-28T01:00:19;101607.88;;;7.11;70.76
75886;BME280;64561;44.018;10.144;2023-02-28T01:02:48;101600.25;;;7.11;70.08
75886;BME280;64561;44.018;10.144;2023-02-28T01:05:15;101606.59;;;7.19;69.90
75886;BME280;64561;44.018;10.144;2023-02-28T01:07:44;101596.63;;;7.24;68.64
75886;BME280;64561;44.018;10.144;2023-02-28T01:10:11;101595.13;;;7.27;69.25
75886;BME280;64561;44.018;10.144;2023-02-28T01:12:38;101597.25;;;7.36;70.00
75886;BME280;64561;44.018;10.144;2023-02-28T01:15:05;101602.72;;;7.44;71.02
75886;BME280;64561;44.018;10.144;2023-02-28T01:17:32;101601.41;;;7.52;71.82
75886;BME280;64561;44.018;10.144;2023-02-28T01:19:59;101606.03;;;7.59;71.50
75886;BME280;64561;44.018;10.144;2023-02-28T01:22:26;101606.97;;;7.61;71.10
75886;BME280;64561;44.018;10.144;2023-02-28T01:24:53;101592.47;;;7.60;70.75
75886;BME280;64561;44.018;10.144;2023-02-28T01:27:20;101596.84;;;7.63;71.13
75886;BME280;64561;44.018;10.144;2023-02-28T01:29:47;101591.75;;;7.63;71.01
75886;BME280;64561;44.018;10.144;2023-02-28T01:32:15;101596.78;;;7.61;70.92
75886;BME280;64561;44.018;10.144;2023-02-28T01:34:41;101595.97;;;7.62;70.93
75886;BME280;64561;44.018;10.144;2023-02-28T01:37:08;101592.41;;;7.59;70.98
75886;BME280;64561;44.018;10.144;2023-02-28T01:39:35;101577.63;;;7.51;70.79
75886;BME280;64561;44.018;10.144;2023-02-28T01:42:02;101584.25;;;7.48;71.76
75886;BME280;64561;44.018;10.144;2023-02-28T01:47:39;101584.41;;;7.17;70.58
75886;BME280;64561;44.018;10.144;2023-02-28T01:50:13;101585.63;;;7.07;69.77
75886;BME280;64561;44.018;10.144;2023-02-28T01:52:41;101585.00;;;6.95;70.06
75886;BME280;64561;44.018;10.144;2023-02-28T01:55:10;101576.97;;;6.87;71.04
75886;BME280;64561;44.018;10.144;2023-02-28T01:57:45;101587.38;;;6.92;71.48
75886;BME280;64561;44.018;10.144;2023-02-28T02:00:17;101592.16;;;7.02;72.67
75886;BME280;64561;44.018;10.144;2023-02-28T02:02:50;101597.63;;;7.09;73.13
75886;BME280;64561;44.018;10.144;2023-02-28T02:05:21;101593.56;;;7.13;73.13
75886;BME280;64561;44.018;10.144;2023-02-28T02:07:51;101596.28;;;7.16;73.57
75886;BME280;64561;44.018;10.144;2023-02-28T02:16:16;101606.59;;;7.19;74.25
75886;BME280;64561;44.018;10.144;2023-02-28T02:21:57;101607.78;;;7.26;73.79
75886;BME280;64561;44.018;10.144;2023-02-28T02:30:20;101608.91;;;7.15;74.08
75886;BME280;64561;44.018;10.144;2023-02-28T02:38:28;101595.84;;;7.25;73.88
75886;BME280;64561;44.018;10.144;2023-02-28T02:43:52;101596.53;;;7.39;72.45
75886;BME280;64561;44.018;10.144;2023-02-28T02:46:26;101598.06;;;7.35;72.25
75886;BME280;64561;44.018;10.144;2023-02-28T02:49:00;101593.84;;;7.36;72.61
75886;BME280;64561;44.018;10.144;2023-02-28T02:51:27;101608.66;;;7.26;70.97
75886;BME280;64561;44.018;10.144;2023-02-28T02:54:06;101604.06;;;7.03;71.06
75886;BME280;64561;44.018;10.144;2023-02-28T02:56:36;101609.88;;;7.00;72.42
75886;BME280;64561;44.018;10.144;2023-02-28T02:59:07;101603.91;;;7.00;73.28
75886;BME280;64561;44.018;10.144;2023-02-28T03:01:34;101607.13;;;6.96;72.90
75886;BME280;64561;44.018;10.144;2023-02-28T03:04:07;101604.63;;;6.97;72.84
75886;BME280;64561;44.018;10.144;2023-02-28T03:06:34;101602.50;;;7.05;73.88
75886;BME280;64561;44.018;10.144;2023-02-28T03:09:02;101601.88;;;6.93;73.44
75886;BME280;64561;44.018;10.144;2023-02-28T03:11:30;101602.50;;;6.72;73.86
75886;BME280;64561;44.018;10.144;2023-02-28T03:20:26;101592.34;;;6.72;71.65
75886;BME280;64561;44.018;10.144;2023-02-28T03:22:59;101599.31;;;6.76;70.52
75886;BME280;64561;44.018;10.144;2023-02-28T03:31:22;101591.38;;;6.86;72.33
75886;BME280;64561;44.018;10.144;2023-02-28T03:34:17;101592.31;;;6.88;73.03
75886;BME280;64561;44.018;10.144;2023-02-28T03:36:50;101588.44;;;6.95;73.30
75886;BME280;64561;44.018;10.144;2023-02-28T03:39:30;101587.13;;;7.03;74.09
75886;BME280;64561;44.018;10.144;2023-02-28T03:42:08;101588.19;;;7.07;73.11
75886;BME280;64561;44.018;10.144;2023-02-28T03:44:49;101591.50;;;7.06;72.59
75886;BME280;64561;44.018;10.144;2023-02-28T03:47:22;101584.03;;;7.09;73.00
75886;BME280;64561;44.018;10.144;2023-02-28T03:50:01;101592.78;;;7.14;73.93
75886;BME280;64561;44.018;10.144;2023-02-28T03:52:34;101594.34;;;7.12;73.73
75886;BME280;64561;44.018;10.144;2023-02-28T03:55:05;101600.72;;;7.04;74.20
75886;BME280;64561;44.018;10.144;2023-02-28T03:57:38;101610.50;;;7.13;73.39
75886;BME280;64561;44.018;10.144;2023-02-28T04:00:10;101600.47;;;7.16;73.92
75886;BME280;64561;44.018;10.144;2023-02-28T04:02:41;101603.25;;;7.20;74.34
75886;BME280;64561;44.018;10.144;2023-02-28T04:05:08;101600.91;;;7.25;74.27
75886;BME280;64561;44.018;10.144;2023-02-28T04:07:37;101594.59;;;7.17;72.65
75886;BME280;64561;44.018;10.144;2023-02-28T04:10:05;101589.38;;;6.97;73.03
75886;BME280;64561;44.018;10.144;2023-02-28T04:12:32;101594.53;;;6.82;74.09
75886;BME280;64561;44.018;10.144;2023-02-28T04:14:58;101586.59;;;6.76;72.96
75886;BME280;64561;44.018;10.144;2023-02-28T04:17:25;101592.81;;;6.81;73.90
75886;BME280;64561;44.018;10.144;2023-02-28T04:19:52;101593.28;;;6.91;74.68
75886;BME280;64561;44.018;10.144;2023-02-28T04:22:20;101592.56;;;6.93;74.69
75886;BME280;64561;44.018;10.144;2023-02-28T04:24:47;101593.97;;;6.88;74.72
75886;BME280;64561;44.018;10.144;2023-02-28T04:27:14;101603.38;;;6.73;74.92
75886;BME280;64561;44.018;10.144;2023-02-28T04:29:42;101600.44;;;6.65;74.76
75886;BME280;64561;44.018;10.144;2023-02-28T04:32:11;101594.72;;;6.69;74.43
75886;BME280;64561;44.018;10.144;2023-02-28T04:34:38;101603.69;;;6.79;75.46
75886;BME280;64561;44.018;10.144;2023-02-28T04:37:05;101606.47;;;6.83;75.59
75886;BME280;64561;44.018;10.144;2023-02-28T04:39:40;101594.84;;;6.88;74.82
75886;BME280;64561;44.018;10.144;2023-02-28T04:42:07;101598.59;;;6.95;74.92
75886;BME280;64561;44.018;10.144;2023-02-28T04:44:34;101593.38;;;6.92;74.39
75886;BME280;64561;44.018;10.144;2023-02-28T04:47:01;101598.84;;;6.83;72.62
75886;BME280;64561;44.018;10.144;2023-02-28T04:49:27;101599.72;;;6.84;72.16
75886;BME280;64561;44.018;10.144;2023-02-28T04:51:54;101609.34;;;6.90;72.59
75886;BME280;64561;44.018;10.144;2023-02-28T04:54:22;101606.25;;;6.95;74.55
75886;BME280;64561;44.018;10.144;2023-02-28T04:56:48;101607.31;;;7.00;73.95
75886;BME280;64561;44.018;10.144;2023-02-28T04:59:16;101610.91;;;7.04;73.82
75886;BME280;64561;44.018;10.144;2023-02-28T05:01:48;101619.44;;;7.04;75.17
75886;BME280;64561;44.018;10.144;2023-02-28T05:04:16;101615.22;;;7.05;74.56
75886;BME280;64561;44.018;10.144;2023-02-28T05:06:42;101621.88;;;7.03;73.82
75886;BME280;64561;44.018;10.144;2023-02-28T05:09:09;101620.59;;;6.95;74.28
75886;BME280;64561;44.018;10.144;2023-02-28T05:11:39;101622.69;;;6.85;74.01
75886;BME280;64561;44.018;10.144;2023-02-28T05:14:11;101613.63;;;6.74;73.22
75886;BME280;64561;44.018;10.144;2023-02-28T05:16:38;101622.34;;;6.79;74.01
75886;BME280;64561;44.018;10.144;2023-02-28T05:19:05;101614.19;;;6.85;74.92
75886;BME280;64561;44.018;10.144;2023-02-28T05:21:40;101620.06;;;6.84;74.01
75886;BME280;64561;44.018;10.144;2023-02-28T05:24:11;101621.25;;;6.91;74.62
75886;BME280;64561;44.018;10.144;2023-02-28T05:26:40;101629.84;;;6.93;73.59
75886;BME280;64561;44.018;10.144;2023-02-28T05:29:08;101624.50;;;6.88;73.43
75886;BME280;64561;44.018;10.144;2023-02-28T05:31:36;101619.50;;;6.73;74.28
75886;BME280;64561;44.018;10.144;2023-02-28T05:34:03;101622.22;;;6.60;72.47
75886;BME280;64561;44.018;10.144;2023-02-28T05:36:33;101610.53;;;6.63;72.99
75886;BME280;64561;44.018;10.144;2023-02-28T05:39:03;101616.03;;;6.71;72.58
75886;BME280;64561;44.018;10.144;2023-02-28T05:41:29;101623.22;;;6.80;73.35
75886;BME280;64561;44.018;10.144;2023-02-28T05:43:57;101626.84;;;6.83;74.49
75886;BME280;64561;44.018;10.144;2023-02-28T05:46:24;101629.53;;;6.86;74.09
75886;BME280;64561;44.018;10.144;2023-02-28T05:48:51;101624.13;;;6.97;74.44
75886;BME280;64561;44.018;10.144;2023-02-28T05:51:18;101630.47;;;7.05;74.45
75886;BME280;64561;44.018;10.144;2023-02-28T05:53:45;101626.50;;;7.10;74.39
75886;BME280;64561;44.018;10.144;2023-02-28T05:56:12;101623.72;;;7.05;74.67
75886;BME280;64561;44.018;10.144;2023-02-28T05:58:39;101620.03;;;7.00;74.21
75886;BME280;64561;44.018;10.144;2023-02-28T06:01:30;101618.16;;;6.96;73.31
75886;BME280;64561;44.018;10.144;2023-02-28T06:03:59;101622.69;;;6.85;73.34
75886;BME280;64561;44.018;10.144;2023-02-28T06:06:26;101608.16;;;6.83;73.26
75886;BME280;64561;44.018;10.144;2023-02-28T06:08:53;101612.50;;;6.85;73.87
75886;BME280;64561;44.018;10.144;2023-02-28T06:11:20;101611.06;;;6.91;74.19
75886;BME280;64561;44.018;10.144;2023-02-28T06:13:47;101614.59;;;6.93;75.62
75886;BME280;64561;44.018;10.144;2023-02-28T06:16:14;101612.41;;;7.00;74.81
75886;BME280;64561;44.018;10.144;2023-02-28T06:18:41;101616.94;;;7.06;75.12
75886;BME280;64561;44.018;10.144;2023-02-28T06:21:08;101613.63;;;7.07;74.69
75886;BME280;64561;44.018;10.144;2023-02-28T06:23:35;101612.72;;;7.06;75.23
75886;BME280;64561;44.018;10.144;2023-02-28T06:26:02;101614.25;;;7.03;74.48
75886;BME280;64561;44.018;10.144;2023-02-28T06:28:29;101617.75;;;7.05;74.08
75886;BME280;64561;44.018;10.144;2023-02-28T06:30:56;101609.41;;;7.07;74.99
75886;BME280;64561;44.018;10.144;2023-02-28T06:33:23;101613.78;;;7.10;75.77
75886;BME280;64561;44.018;10.144;2023-02-28T06:35:50;101620.81;;;7.16;75.17
75886;BME280;64561;44.018;10.144;2023-02-28T06:38:18;101621.94;;;7.21;75.20
75886;BME280;64561;44.018;10.144;2023-02-28T06:40:53;101617.81;;;7.23;75.43
75886;BME280;64561;44.018;10.144;2023-02-28T06:43:21;101619.69;;;7.27;75.31
75886;BME280;64561;44.018;10.144;2023-02-28T06:45:48;101625.75;;;7.29;75.87
75886;BME280;64561;44.018;10.144;2023-02-28T06:48:16;101638.53;;;7.30;75.74
75886;BME280;64561;44.018;10.144;2023-02-28T06:50:43;101647.03;;;7.31;75.87
75886;BME280;64561;44.018;10.144;2023-02-28T06:53:09;101650.50;;;7.31;76.48
75886;BME280;64561;44.018;10.144;2023-02-28T06:55:38;101637.81;;;7.33;75.57
75886;BME280;64561;44.018;10.144;2023-02-28T06:58:05;101641.38;;;7.37;75.43
75886;BME280;64561;44.018;10.144;2023-02-28T07:00:42;101644.75;;;7.36;74.72
75886;BME280;64561;44.018;10.144;2023-02-28T07:03:11;101645.56;;;7.35;75.42
75886;BME280;64561;44.018;10.144;2023-02-28T07:05:39;101651.41;;;7.33;75.15
75886;BME280;64561;44.018;10.144;2023-02-28T07:08:06;101642.69;;;7.28;75.32
75886;BME280;64561;44.018;10.144;2023-02-28T07:10:33;101650.56;;;7.33;75.20
75886;BME280;64561;44.018;10.144;2023-02-28T07:13:00;101655.88;;;7.38;75.39
75886;BME280;64561;44.018;10.144;2023-02-28T07:15:26;101656.09;;;7.42;75.42
75886;BME280;64561;44.018;10.144;2023-02-28T07:17:53;101659.59;;;7.44;75.54
75886;BME280;64561;44.018;10.144;2023-02-28T07:20:20;101667.41;;;7.47;76.05
75886;BME280;64561;44.018;10.144;2023-02-28T07:22:47;101664.84;;;7.47;75.52
75886;BME280;64561;44.018;10.144;2023-02-28T07:25:26;101674.22;;;7.48;75.41
75886;BME280;64561;44.018;10.144;2023-02-28T07:27:55;101669.38;;;7.53;75.35
75886;BME280;64561;44.018;10.144;2023-02-28T07:30:22;101674.69;;;7.57;75.12
75886;BME280;64561;44.018;10.144;2023-02-28T07:32:49;101665.38;;;7.58;75.71
75886;BME280;64561;44.018;10.144;2023-02-28T07:35:16;101672.53;;;7.65;75.63
75886;BME280;64561;44.018;10.144;2023-02-28T07:37:43;101670.13;;;7.68;75.72
75886;BME280;64561;44.018;10.144;2023-02-28T07:40:11;101671.16;;;7.72;74.75
75886;BME280;64561;44.018;10.144;2023-02-28T07:42:39;101664.53;;;7.75;74.40
75886;BME280;64561;44.018;10.144;2023-02-28T07:45:07;101667.16;;;7.77;73.29
75886;BME280;64561;44.018;10.144;2023-02-28T07:47:34;101658.88;;;7.81;72.62
75886;BME280;64561;44.018;10.144;2023-02-28T07:50:01;101664.06;;;7.83;71.51
75886;BME280;64561;44.018;10.144;2023-02-28T07:52:27;101665.06;;;7.86;71.67
75886;BME280;64561;44.018;10.144;2023-02-28T07:54:54;101663.53;;;7.90;70.31
75886;BME280;64561;44.018;10.144;2023-02-28T07:57:21;101664.56;;;7.93;69.00
75886;BME280;64561;44.018;10.144;2023-02-28T07:59:48;101669.88;;;7.98;68.30
75886;BME280;64561;44.018;10.144;2023-02-28T08:02:16;101662.44;;;8.02;69.10
75886;BME280;64561;44.018;10.144;2023-02-28T08:04:43;101665.94;;;8.05;68.69
75886;BME280;64561;44.018;10.144;2023-02-28T08:07:12;101673.06;;;8.12;68.39
75886;BME280;64561;44.018;10.144;2023-02-28T08:09:40;101672.88;;;8.25;66.05
75886;BME280;64561;44.018;10.144;2023-02-28T08:12:07;101664.25;;;8.23;65.29
75886;BME280;64561;44.018;10.144;2023-02-28T08:14:38;101665.00;;;8.20;65.73
75886;BME280;64561;44.018;10.144;2023-02-28T08:17:12;101639.66;;;8.06;65.21
75886;BME280;64561;44.018;10.144;2023-02-28T08:19:39;101664.41;;;8.26;63.90
75886;BME280;64561;44.018;10.144;2023-02-28T08:22:05;101670.31;;;8.25;64.42
75886;BME280;64561;44.018;10.144;2023-02-28T08:24:32;101676.72;;;8.35;64.63
75886;BME280;64561;44.018;10.144;2023-02-28T08:26:59;101675.03;;;8.35;63.67
75886;BME280;64561;44.018;10.144;2023-02-28T08:29:26;101680.41;;;8.40;65.18
75886;BME280;64561;44.018;10.144;2023-02-28T08:31:53;101678.72;;;8.40;64.78
75886;BME280;64561;44.018;10.144;2023-02-28T08:34:20;101683.81;;;8.40;63.35
75886;BME280;64561;44.018;10.144;2023-02-28T08:36:47;101689.88;;;8.42;64.28
75886;BME280;64561;44.018;10.144;2023-02-28T08:39:14;101692.47;;;8.44;64.12
75886;BME280;64561;44.018;10.144;2023-02-28T08:41:42;101692.63;;;8.47;65.10
75886;BME280;64561;44.018;10.144;2023-02-28T08:44:08;101693.84;;;8.55;64.61
75886;BME280;64561;44.018;10.144;2023-02-28T08:46:35;101701.69;;;8.60;62.82
75886;BME280;64561;44.018;10.144;2023-02-28T08:49:02;101701.69;;;8.60;61.79
75886;BME280;64561;44.018;10.144;2023-02-28T08:51:30;101698.13;;;8.56;58.65
75886;BME280;64561;44.018;10.144;2023-02-28T08:54:00;101702.66;;;8.62;59.50
75886;BME280;64561;44.018;10.144;2023-02-28T08:56:28;101695.94;;;8.64;60.33
75886;BME280;64561;44.018;10.144;2023-02-28T08:58:56;101700.59;;;8.73;61.78
75886;BME280;64561;44.018;10.144;2023-02-28T09:01:28;101707.59;;;8.77;58.00
75886;BME280;64561;44.018;10.144;2023-02-28T09:03:57;101707.19;;;8.87;58.77
75886;BME280;64561;44.018;10.144;2023-02-28T09:06:26;101703.03;;;8.89;58.37
75886;BME280;64561;44.018;10.144;2023-02-28T09:08:56;101697.09;;;8.90;57.65
75886;BME280;64561;44.018;10.144;2023-02-28T09:11:24;101690.50;;;8.93;58.89
75886;BME280;64561;44.018;10.144;2023-02-28T09:13:51;101690.81;;;9.01;58.74
75886;BME280;64561;44.018;10.144;2023-02-28T09:16:19;101689.13;;;9.02;56.09
75886;BME280;64561;44.018;10.144;2023-02-28T09:18:46;101686.44;;;8.99;56.12
75886;BME280;64561;44.018;10.144;2023-02-28T09:21:16;101685.66;;;9.00;56.20
75886;BME280;64561;44.018;10.144;2023-02-28T09:23:45;101685.09;;;9.07;59.02
75886;BME280;64561;44.018;10.144;2023-02-28T09:26:19;101682.00;;;9.14;55.22
75886;BME280;64561;44.018;10.144;2023-02-28T09:28:46;101670.41;;;9.21;54.08
75886;BME280;64561;44.018;10.144;2023-02-28T09:31:18;101663.41;;;9.16;55.75
75886;BME280;64561;44.018;10.144;2023-02-28T09:33:50;101671.06;;;9.36;55.65
75886;BME280;64561;44.018;10.144;2023-02-28T09:36:18;101670.56;;;9.45;53.27
75886;BME280;64561;44.018;10.144;2023-02-28T09:38:46;101668.88;;;9.45;54.20
75886;BME280;64561;44.018;10.144;2023-02-28T09:41:39;101670.13;;;9.55;54.10
75886;BME280;64561;44.018;10.144;2023-02-28T09:44:20;101671.69;;;9.51;51.86
75886;BME280;64561;44.018;10.144;2023-02-28T09:46:53;101667.88;;;9.62;52.22
75886;BME280;64561;44.018;10.144;2023-02-28T09:49:31;101669.31;;;9.77;51.06
75886;BME280;64561;44.018;10.144;2023-02-28T09:52:03;101671.88;;;9.77;53.27
75886;BME280;64561;44.018;10.144;2023-02-28T09:54:32;101650.69;;;9.79;54.46
75886;BME280;64561;44.018;10.144;2023-02-28T09:57:11;101666.09;;;9.81;55.87
75886;BME280;64561;44.018;10.144;2023-02-28T09:59:58;101669.69;;;9.86;55.78
75886;BME280;64561;44.018;10.144;2023-02-28T10:06:08;101674.06;;;9.89;53.57
75886;BME280;64561;44.018;10.144;2023-02-28T10:08:41;101666.09;;;9.81;53.58
75886;BME280;64561;44.018;10.144;2023-02-28T10:11:15;101661.38;;;9.90;52.82
75886;BME280;64561;44.018;10.144;2023-02-28T10:16:43;101655.31;;;10.11;53.15
75886;BME280;64561;44.018;10.144;2023-02-28T10:19:14;101651.28;;;10.16;51.20
75886;BME280;64561;44.018;10.144;2023-02-28T10:22:00;101653.81;;;10.37;50.21
75886;BME280;64561;44.018;10.144;2023-02-28T10:27:17;101632.00;;;10.69;48.56
75886;BME280;64561;44.018;10.144;2023-02-28T10:29:50;101635.47;;;10.71;49.65
75886;BME280;64561;44.018;10.144;2023-02-28T10:32:21;101630.31;;;10.69;49.38
75886;BME280;64561;44.018;10.144;2023-02-28T10:34:57;101641.16;;;10.62;49.16
75886;BME280;64561;44.018;10.144;2023-02-28T10:37:27;101644.56;;;10.63;48.75
75886;BME280;64561;44.018;10.144;2023-02-28T10:39:54;101639.06;;;10.76;48.22
75886;BME280;64561;44.018;10.144;2023-02-28T10:42:25;101635.75;;;10.79;50.25
75886;BME280;64561;44.018;10.144;2023-02-28T10:45:26;101628.28;;;10.85;48.69
75886;BME280;64561;44.018;10.144;2023-02-28T11:01:45;101636.09;;;11.37;48.66
75886;BME280;64561;44.018;10.144;2023-02-28T11:07:00;101634.38;;;11.63;50.13
75886;BME280;64561;44.018;10.144;2023-02-28T11:09:34;101621.06;;;11.74;49.16
75886;BME280;64561;44.018;10.144;2023-02-28T11:12:05;101630.22;;;11.93;49.70
75886;BME280;64561;44.018;10.144;2023-02-28T11:14:50;101630.69;;;12.08;47.81
75886;BME280;64561;44.018;10.144;2023-02-28T11:17:26;101631.72;;;12.13;49.38
75886;BME280;64561;44.018;10.144;2023-02-28T11:19:57;101631.91;;;12.19;49.34
75886;BME280;64561;44.018;10.144;2023-02-28T11:22:27;101623.88;;;12.37;49.57
75886;BME280;64561;44.018;10.144;2023-02-28T11:25:00;101622.63;;;12.53;46.81
75886;BME280;64561;44.018;10.144;2023-02-28T11:29:59;101629.81;;;12.65;48.91
75886;BME280;64561;44.018;10.144;2023-02-28T11:32:28;101615.97;;;12.59;48.52
75886;BME280;64561;44.018;10.144;2023-02-28T11:37:57;101604.69;;;12.54;46.33
75886;BME280;64561;44.018;10.144;2023-02-28T11:40:51;101600.00;;;12.40;47.77
75886;BME280;64561;44.018;10.144;2023-02-28T12:10:02;101566.84;;;12.47;45.98
75886;BME280;64561;44.018;10.144;2023-02-28T12:12:39;101567.78;;;12.51;48.83
75886;BME280;64561;44.018;10.144;2023-02-28T12:28:27;101536.53;;;12.97;45.72
75886;BME280;64561;44.018;10.144;2023-02-28T12:33:36;101539.66;;;13.20;47.63
75886;BME280;64561;44.018;10.144;2023-02-28T12:36:11;101526.97;;;13.26;47.00
75886;BME280;64561;44.018;10.144;2023-02-28T12:38:53;101519.25;;;13.25;45.87
75886;BME280;64561;44.018;10.144;2023-02-28T12:41:44;101516.69;;;13.26;45.08
75886;BME280;64561;44.018;10.144;2023-02-28T12:46:59;101515.25;;;13.36;44.87
75886;BME280;64561;44.018;10.144;2023-02-28T12:49:33;101509.31;;;13.39;44.99
75886;BME280;64561;44.018;10.144;2023-02-28T12:52:01;101505.91;;;13.40;44.48
75886;BME280;64561;44.018;10.144;2023-02-28T12:54:47;101499.03;;;13.39;44.60
75886;BME280;64561;44.018;10.144;2023-02-28T13:00:26;101477.69;;;13.43;44.70
75886;BME280;64561;44.018;10.144;2023-02-28T13:11:45;101474.69;;;13.62;46.34
75886;BME280;64561;44.018;10.144;2023-02-28T13:14:28;101474.66;;;13.61;44.27
75886;BME280;64561;44.018;10.144;2023-02-28T13:19:30;101473.88;;;13.63;45.41
75886;BME280;64561;44.018;10.144;2023-02-28T13:21:58;101458.56;;;13.71;46.46
75886;BME280;64561;44.018;10.144;2023-02-28T13:27:36;101460.97;;;13.62;43.37
75886;BME280;64561;44.018;10.144;2023-02-28T13:54:43;101442.03;;;13.58;44.18
75886;BME280;64561;44.018;10.144;2023-02-28T14:06:14;101436.28;;;12.94;47.91
75886;BME280;64561;44.018;10.144;2023-02-28T14:08:59;101437.06;;;12.92;45.90
75886;BME280;64561;44.018;10.144;2023-02-28T14:11:29;101438.00;;;12.95;47.12
75886;BME280;64561;44.018;10.144;2023-02-28T14:13:56;101427.59;;;13.25;44.06
75886;BME280;64561;44.018;10.144;2023-02-28T14:16:25;101422.63;;;13.33;43.76
75886;BME280;64561;44.018;10.144;2023-02-28T14:19:03;101422.59;;;13.32;45.97
75886;BME280;64561;44.018;10.144;2023-02-28T14:21:38;101407.38;;;13.41;45.38
75886;BME280;64561;44.018;10.144;2023-02-28T14:35:35;101401.47;;;13.87;44.64
75886;BME280;64561;44.018;10.144;2023-02-28T14:38:35;101402.34;;;13.88;46.55
75886;BME280;64561;44.018;10.144;2023-02-28T14:41:03;101395.38;;;13.84;45.50
75886;BME280;64561;44.018;10.144;2023-02-28T14:43:31;101394.69;;;13.91;45.65
75886;BME280;64561;44.018;10.144;2023-02-28T14:46:01;101393.03;;;13.94;44.71
75886;BME280;64561;44.018;10.144;2023-02-28T14:48:28;101389.50;;;13.89;44.89
75886;BME280;64561;44.018;10.144;2023-02-28T14:51:00;101391.09;;;13.83;45.71
75886;BME280;64561;44.018;10.144;2023-02-28T14:53:29;101395.25;;;13.78;41.98
75886;BME280;64561;44.018;10.144;2023-02-28T14:55:57;101384.97;;;13.78;40.11
75886;BME280;64561;44.018;10.144;2023-02-28T14:58:31;101386.63;;;13.74;40.39
75886;BME280;64561;44.018;10.144;2023-02-28T15:01:01;101393.28;;;13.64;40.92
75886;BME280;64561;44.018;10.144;2023-02-28T15:06:04;101381.25;;;13.62;41.38
75886;BME280;64561;44.018;10.144;2023-02-28T15:08:32;101389.81;;;13.62;41.37
75886;BME280;64561;44.018;10.144;2023-02-28T15:11:16;101382.88;;;13.58;40.75
75886;BME280;64561;44.018;10.144;2023-02-28T15:13:56;101379.31;;;13.52;40.48
75886;BME280;64561;44.018;10.144;2023-02-28T15:16:35;101381.06;;;13.53;38.92
75886;BME280;64561;44.018;10.144;2023-02-28T15:19:12;101379.31;;;13.52;38.57
75886;BME280;64561;44.018;10.144;2023-02-28T15:21:44;101386.25;;;13.56;40.63
75886;BME280;64561;44.018;10.144;2023-02-28T15:24:45;101376.78;;;13.53;39.56
75886;BME280;64561;44.018;10.144;2023-02-28T15:27:16;101368.97;;;13.48;39.60
75886;BME280;64561;44.018;10.144;2023-02-28T15:29:50;101360.34;;;13.45;40.75
75886;BME280;64561;44.018;10.144;2023-02-28T15:32:24;101366.25;;;13.41;39.46
75886;BME280;64561;44.018;10.144;2023-02-28T15:34:54;101372.03;;;13.31;39.12
75886;BME280;64561;44.018;10.144;2023-02-28T15:37:40;101373.56;;;13.24;39.66
75886;BME280;64561;44.018;10.144;2023-02-28T15:40:23;101372.34;;;13.08;40.82
75886;BME280;64561;44.018;10.144;2023-02-28T15:45:50;101372.06;;;12.96;39.61
75886;BME280;64561;44.018;10.144;2023-02-28T15:48:30;101373.56;;;12.86;41.89
75886;BME280;64561;44.018;10.144;2023-02-28T15:51:21;101377.75;;;12.82;44.09
75886;BME280;64561;44.018;10.144;2023-02-28T15:54:27;101355.78;;;12.95;39.70
75886;BME280;64561;44.018;10.144;2023-02-28T15:57:04;101360.94;;;12.59;43.41
75886;BME280;64561;44.018;10.144;2023-02-28T15:59:36;101375.41;;;12.55;44.91
75886;BME280;64561;44.018;10.144;2023-02-28T16:04:37;101376.59;;;12.35;47.49
75886;BME280;64561;44.018;10.144;2023-02-28T16:07:05;101382.72;;;12.07;47.82
75886;BME280;64561;44.018;10.144;2023-02-28T16:09:32;101380.78;;;12.00;48.92
75886;BME280;64561;44.018;10.144;2023-02-28T16:12:03;101394.22;;;11.91;48.82